createdAt,value
2019-02-17T00:02:11.007Z,102194.80
2019-02-17T00:04:40.668Z,102197.65
2019-02-17T00:07:10.388Z,102202.62
2019-02-17T00:09:40.077Z,102200.99
2019-02-17T00:12:09.758Z,102197.88
2019-02-17T00:14:39.420Z,102197.61
2019-02-17T00:17:09.126Z,102199.50
2019-02-17T00:19:38.798Z,102194.27
2019-02-17T00:22:15.276Z,102192.76
2019-02-17T00:24:44.962Z,102194.27
2019-02-17T00:27:14.663Z,102199.36
2019-02-17T00:29:44.357Z,102201.53
2019-02-17T00:32:14.043Z,102198.97
2019-02-17T00:34:43.732Z,102189.39
2019-02-17T00:37:13.407Z,102198.34
2019-02-17T00:39:43.106Z,102190.61
2019-02-17T00:42:12.895Z,102184.59
2019-02-17T00:44:42.577Z,102187.02
2019-02-17T00:47:12.282Z,102199.13
2019-02-17T00:49:42.005Z,102201.25
2019-02-17T00:52:11.685Z,102193.84
2019-02-17T00:54:41.341Z,102201.98
2019-02-17T00:57:11.049Z,102197.33
2019-02-17T00:59:40.662Z,102201.31
2019-02-17T01:02:10.317Z,102196.92
2019-02-17T01:04:39.964Z,102197.88
2019-02-17T01:07:09.579Z,102196.92
2019-02-17T01:09:39.238Z,102197.59
2019-02-17T01:12:08.930Z,102200.17
2019-02-17T01:14:38.577Z,102196.83
2019-02-17T01:17:08.197Z,102198.46
2019-02-17T01:19:37.905Z,102199.36
2019-02-17T01:22:07.577Z,102193.71
2019-02-17T01:24:37.253Z,102196.97
2019-02-17T01:27:06.924Z,102194.66
2019-02-17T01:29:36.638Z,102185.38
2019-02-17T01:32:06.309Z,102183.91
2019-02-17T01:34:36.016Z,102174.68
2019-02-17T01:37:06.113Z,102170.47
2019-02-17T01:39:35.879Z,102170.92
2019-02-17T01:42:05.555Z,102174.30
2019-02-17T01:44:35.265Z,102181.70
2019-02-17T01:47:04.983Z,102174.16
2019-02-17T01:49:34.662Z,102173.16
2019-02-17T01:52:04.308Z,102177.95
2019-02-17T01:54:34.193Z,102171.19
2019-02-17T01:57:03.884Z,102174.66
2019-02-17T01:59:33.648Z,102171.80
2019-02-17T02:02:03.330Z,102173.32
2019-02-17T02:04:33.006Z,102174.12
2019-02-17T02:07:02.722Z,102176.03
2019-02-17T02:09:32.409Z,102178.39
2019-02-17T02:12:02.110Z,102175.77
2019-02-17T02:14:32.449Z,102171.16
2019-02-17T02:17:04.058Z,102170.12
2019-02-17T02:19:33.746Z,102163.48
2019-02-17T02:22:03.423Z,102160.59
2019-02-17T02:24:33.130Z,102156.13
2019-02-17T02:27:07.941Z,102157.25
2019-02-17T02:29:41.051Z,102161.28
2019-02-17T02:32:09.027Z,102169.95
2019-02-17T02:34:38.686Z,102174.89
2019-02-17T02:37:08.392Z,102179.04
2019-02-17T02:39:38.111Z,102191.64
2019-02-17T02:42:07.796Z,102188.94
2019-02-17T02:44:37.468Z,102186.08
2019-02-17T02:47:07.162Z,102183.38
2019-02-17T02:49:36.858Z,102181.39
2019-02-17T02:52:06.579Z,102174.96
2019-02-17T02:54:36.455Z,102171.72
2019-02-17T02:57:06.139Z,102167.66
2019-02-17T02:59:35.843Z,102168.38
2019-02-17T03:02:05.545Z,102169.73
2019-02-17T03:04:35.197Z,102176.92
2019-02-17T03:07:04.899Z,102172.14
2019-02-17T03:09:34.558Z,102173.89
2019-02-17T03:12:04.696Z,102173.49
2019-02-17T03:14:34.471Z,102170.30
2019-02-17T03:17:04.566Z,102170.43
2019-02-17T03:19:34.539Z,102174.00
2019-02-17T03:22:04.690Z,102177.55
2019-02-17T03:24:34.364Z,102175.71
2019-02-17T03:27:04.053Z,102173.09
2019-02-17T03:29:34.586Z,102180.67
2019-02-17T03:32:04.275Z,102173.28
2019-02-17T03:34:33.956Z,102176.72
2019-02-17T03:37:03.690Z,102178.06
2019-02-17T03:39:33.340Z,102174.95
2019-02-17T03:42:03.008Z,102181.73
2019-02-17T03:44:32.806Z,102178.29
2019-02-17T03:47:02.546Z,102184.71
2019-02-17T03:49:32.196Z,102184.66
2019-02-17T03:52:01.878Z,102191.98
2019-02-17T03:54:31.589Z,102197.05
2019-02-17T03:57:01.261Z,102190.67
2019-02-17T03:59:30.914Z,102186.34
2019-02-17T04:02:00.606Z,102189.05
2019-02-17T04:04:30.318Z,102195.83
2019-02-17T04:06:59.962Z,102190.13
2019-02-17T04:09:29.639Z,102188.64
2019-02-17T04:11:59.328Z,102190.27
2019-02-17T04:14:29.074Z,102181.19
2019-02-17T04:16:58.948Z,102186.47
2019-02-17T04:19:28.662Z,102190.54
2019-02-17T04:21:58.365Z,102188.78
2019-02-17T04:24:28.043Z,102187.42
2019-02-17T04:26:57.756Z,102183.30
2019-02-17T04:29:27.466Z,102181.05
2019-02-17T04:31:57.135Z,102179.43
2019-02-17T04:34:26.809Z,102174.96
2019-02-17T04:36:56.468Z,102165.83
2019-02-17T04:39:26.162Z,102174.41
2019-02-17T04:41:55.854Z,102169.95
2019-02-17T04:44:31.698Z,102176.67
2019-02-17T04:47:01.360Z,102172.66
2019-02-17T04:49:31.060Z,102175.23
2019-02-17T04:52:00.762Z,102174.96
2019-02-17T04:54:30.477Z,102174.41
2019-02-17T04:57:00.166Z,102174.09
2019-02-17T04:59:29.959Z,102172.80
2019-02-17T05:01:59.636Z,102174.01
2019-02-17T05:04:29.325Z,102178.02
2019-02-17T05:06:59.084Z,102174.55
2019-02-17T05:09:28.876Z,102176.53
2019-02-17T05:11:58.520Z,102176.95
2019-02-17T05:14:28.228Z,102170.44
2019-02-17T05:16:57.909Z,102181.06
2019-02-17T05:19:27.614Z,102178.30
2019-02-17T05:21:57.309Z,102176.72
2019-02-17T05:24:27.076Z,102176.86
2019-02-17T05:26:56.768Z,102178.34
2019-02-17T05:29:26.488Z,102175.77
2019-02-17T05:31:56.144Z,102174.83
2019-02-17T05:34:25.875Z,102175.45
2019-02-17T05:36:55.583Z,102175.72
2019-02-17T05:39:25.300Z,102173.20
2019-02-17T05:41:54.978Z,102175.05
2019-02-17T05:44:24.691Z,102172.20
2019-02-17T05:46:54.354Z,102174.50
2019-02-17T05:49:24.050Z,102177.12
2019-02-17T05:51:53.744Z,102179.84
2019-02-17T05:54:23.482Z,102183.09
2019-02-17T05:56:53.098Z,102179.92
2019-02-17T05:59:22.780Z,102184.12
2019-02-17T06:01:52.435Z,102180.73
2019-02-17T06:04:22.173Z,102180.11
2019-02-17T06:06:51.832Z,102180.73
2019-02-17T06:09:21.564Z,102182.23
2019-02-17T06:11:51.229Z,102184.80
2019-02-17T06:14:20.939Z,102187.42
2019-02-17T06:16:50.640Z,102185.48
2019-02-17T06:19:20.309Z,102188.23
2019-02-17T06:21:49.993Z,102188.19
2019-02-17T06:24:19.748Z,102185.94
2019-02-17T06:26:49.401Z,102187.64
2019-02-17T06:29:19.098Z,102186.16
2019-02-17T06:31:48.778Z,102187.97
2019-02-17T06:34:18.487Z,102189.32
2019-02-17T06:36:48.161Z,102184.98
2019-02-17T06:39:17.836Z,102180.92
2019-02-17T06:41:47.492Z,102183.91
2019-02-17T06:44:17.218Z,102191.84
2019-02-17T06:46:48.532Z,102193.11
2019-02-17T06:49:18.260Z,102196.09
2019-02-17T06:51:47.946Z,102198.27
2019-02-17T06:54:17.622Z,102206.20
2019-02-17T06:56:48.937Z,102208.96
2019-02-17T06:59:18.602Z,102211.27
2019-02-17T07:01:48.283Z,102213.70
2019-02-17T07:04:18.986Z,102211.89
2019-02-17T07:06:50.305Z,102211.89
2019-02-17T07:09:21.907Z,102213.98
2019-02-17T07:11:51.575Z,102211.48
2019-02-17T07:14:21.331Z,102215.59
2019-02-17T07:16:50.989Z,102220.34
2019-02-17T07:19:20.698Z,102219.39
2019-02-17T07:21:50.389Z,102216.41
2019-02-17T07:24:20.110Z,102226.03
2019-02-17T07:26:49.806Z,102224.27
2019-02-17T07:29:19.488Z,102226.98
2019-02-17T07:31:49.172Z,102224.41
2019-02-17T07:34:18.926Z,102217.86
2019-02-17T07:36:48.641Z,102221.92
2019-02-17T07:39:18.325Z,102225.09
2019-02-17T07:41:48.030Z,102218.72
2019-02-17T07:44:17.730Z,102221.70
2019-02-17T07:46:47.422Z,102216.15
2019-02-17T07:49:17.191Z,102215.60
2019-02-17T07:51:46.907Z,102215.06
2019-02-17T07:54:16.676Z,102215.02
2019-02-17T07:56:48.428Z,102212.89
2019-02-17T07:59:17.738Z,102215.88
2019-02-17T08:01:47.420Z,102220.63
2019-02-17T08:04:17.115Z,102214.66
2019-02-17T08:06:46.880Z,102221.52
2019-02-17T08:09:16.583Z,102220.84
2019-02-17T08:11:46.275Z,102228.56
2019-02-17T08:14:15.960Z,102231.73
2019-02-17T08:16:46.012Z,102231.36
2019-02-17T08:19:15.672Z,102223.27
2019-02-17T08:21:45.428Z,102223.95
2019-02-17T08:24:15.104Z,102228.22
2019-02-17T08:26:44.794Z,102225.91
2019-02-17T08:29:14.473Z,102224.88
2019-02-17T08:31:44.202Z,102227.99
2019-02-17T08:34:13.871Z,102232.73
2019-02-17T08:36:43.551Z,102220.88
2019-02-17T08:39:13.200Z,102226.18
2019-02-17T08:41:42.916Z,102214.91
2019-02-17T08:44:12.573Z,102214.77
2019-02-17T08:46:42.304Z,102204.67
2019-02-17T08:49:12.011Z,102205.24
2019-02-17T08:51:41.654Z,102201.67
2019-02-17T08:54:11.350Z,102203.95
2019-02-17T08:56:41.042Z,102206.02
2019-02-17T08:59:10.702Z,102200.09
2019-02-17T09:01:40.588Z,102208.33
2019-02-17T09:04:10.249Z,102204.87
2019-02-17T09:06:39.920Z,102200.25
2019-02-17T09:09:09.611Z,102201.20
2019-02-17T09:11:39.308Z,102199.94
2019-02-17T09:14:08.972Z,102199.03
2019-02-17T09:16:38.681Z,102201.16
2019-02-17T09:19:08.373Z,102201.88
2019-02-17T09:21:38.050Z,102197.55
2019-02-17T09:24:07.739Z,102198.92
2019-02-17T09:26:37.447Z,102208.16
2019-02-17T09:29:07.121Z,102204.13
2019-02-17T09:31:36.801Z,102202.31
2019-02-17T09:34:06.487Z,102205.89
2019-02-17T09:36:36.191Z,102201.41
2019-02-17T09:39:08.181Z,102204.20
2019-02-17T09:41:37.888Z,102206.22
2019-02-17T09:44:07.533Z,102202.11
2019-02-17T09:46:37.382Z,102208.28
2019-02-17T09:49:07.054Z,102212.42
2019-02-17T09:51:36.842Z,102209.60
2019-02-17T09:54:06.520Z,102212.14
2019-02-17T09:56:36.229Z,102215.61
2019-02-17T09:59:05.918Z,102218.89
2019-02-17T10:01:35.567Z,102213.83
2019-02-17T10:04:05.218Z,102219.91
2019-02-17T10:06:35.002Z,102223.33
2019-02-17T10:09:06.306Z,102217.58
2019-02-17T10:11:36.312Z,102227.50
2019-02-17T10:14:06.003Z,102221.25
2019-02-17T10:16:35.646Z,102224.48
2019-02-17T10:19:05.264Z,102223.42
2019-02-17T10:21:34.889Z,102222.91
2019-02-17T10:24:04.543Z,102225.92
2019-02-17T10:26:34.156Z,102215.80
2019-02-17T10:29:03.794Z,102224.52
2019-02-17T10:31:33.425Z,102221.87
2019-02-17T10:34:03.127Z,102220.68
2019-02-17T10:36:32.760Z,102218.48
2019-02-17T10:39:02.926Z,102214.22
2019-02-17T10:41:32.619Z,102217.20
2019-02-17T10:44:02.333Z,102206.55
2019-02-17T10:46:32.048Z,102205.12
2019-02-17T10:49:01.696Z,102208.34
2019-02-17T10:51:31.313Z,102197.97
2019-02-17T10:54:00.956Z,102196.87
2019-02-17T10:56:30.599Z,102191.60
2019-02-17T10:59:00.225Z,102185.25
2019-02-17T11:01:29.871Z,102182.22
2019-02-17T11:04:07.630Z,102174.38
2019-02-17T11:06:37.302Z,102174.06
2019-02-17T11:09:09.285Z,102174.48
2019-02-17T11:11:38.978Z,102170.45
2019-02-17T11:14:08.679Z,102170.27
2019-02-17T11:16:38.416Z,102172.61
2019-02-17T11:19:08.110Z,102167.95
2019-02-17T11:21:37.767Z,102165.20
2019-02-17T11:24:07.527Z,102160.93
2019-02-17T11:26:37.185Z,102154.09
2019-02-17T11:29:06.965Z,102153.99
2019-02-17T11:31:36.681Z,102154.38
2019-02-17T11:34:06.515Z,102154.89
2019-02-17T11:36:36.189Z,102156.53
2019-02-17T11:39:09.081Z,102151.03
2019-02-17T11:41:38.799Z,102147.14
2019-02-17T11:44:08.468Z,102148.90
2019-02-17T11:46:38.165Z,102143.63
2019-02-17T11:49:07.879Z,102143.26
2019-02-17T11:51:37.536Z,102137.41
2019-02-17T11:54:07.247Z,102131.17
2019-02-17T11:56:36.926Z,102133.53
2019-02-17T11:59:06.639Z,102121.72
2019-02-17T12:01:36.298Z,102127.27
2019-02-17T12:04:06.017Z,102120.86
2019-02-17T12:06:35.680Z,102114.19
2019-02-17T12:09:07.400Z,102118.21
2019-02-17T12:11:38.173Z,102107.30
2019-02-17T12:14:07.870Z,102109.96
2019-02-17T12:16:37.578Z,102108.60
2019-02-17T12:19:07.275Z,102108.00
2019-02-17T12:21:38.610Z,102101.59
2019-02-17T12:24:15.708Z,102101.89
2019-02-17T12:26:53.014Z,102091.28
2019-02-17T12:29:38.307Z,102091.66
2019-02-17T12:32:07.928Z,102088.08
2019-02-17T12:34:37.662Z,102086.79
2019-02-17T12:37:07.330Z,102076.19
2019-02-17T12:39:37.026Z,102069.45
2019-02-17T12:42:06.764Z,102070.03
2019-02-17T12:44:36.467Z,102066.72
2019-02-17T12:47:06.207Z,102064.00
2019-02-17T12:49:36.070Z,102053.47
2019-02-17T12:52:05.772Z,102055.22
2019-02-17T12:54:35.481Z,102054.85
2019-02-17T12:57:05.177Z,102050.27
2019-02-17T12:59:34.848Z,102043.75
2019-02-17T13:02:04.580Z,102039.66
2019-02-17T13:04:34.277Z,102038.95
2019-02-17T13:07:05.064Z,102038.28
2019-02-17T13:09:34.774Z,102038.48
2019-02-17T13:12:04.471Z,102035.14
2019-02-17T13:14:34.167Z,102034.27
2019-02-17T13:17:03.878Z,102037.30
2019-02-17T13:19:33.511Z,102033.80
2019-02-17T13:22:03.139Z,102031.64
2019-02-17T13:24:32.772Z,102031.24
2019-02-17T13:27:02.414Z,102028.92
2019-02-17T13:29:32.048Z,102030.66
2019-02-17T13:32:01.674Z,102031.54
2019-02-17T13:34:31.433Z,102028.20
2019-02-17T13:37:01.103Z,102026.38
2019-02-17T13:39:30.853Z,102020.92
2019-02-17T13:42:00.557Z,102022.58
2019-02-17T13:44:30.313Z,102014.09
2019-02-17T13:47:00.074Z,102012.03
2019-02-17T13:49:29.804Z,102011.84
2019-02-17T13:51:59.519Z,102010.78
2019-02-17T13:54:29.210Z,102005.00
2019-02-17T13:56:58.937Z,101995.06
2019-02-17T13:59:28.606Z,102005.17
2019-02-17T14:01:58.292Z,102003.52
2019-02-17T14:04:27.985Z,102004.68
2019-02-17T14:06:57.707Z,102002.31
2019-02-17T14:09:27.385Z,102000.13
2019-02-17T14:11:57.076Z,101997.21
2019-02-17T14:14:26.763Z,101986.88
2019-02-17T14:16:56.505Z,101983.97
2019-02-17T14:19:26.193Z,101987.02
2019-02-17T14:21:55.913Z,101985.00
2019-02-17T14:24:25.612Z,101990.36
2019-02-17T14:26:55.333Z,101986.02
2019-02-17T14:29:25.028Z,101977.62
2019-02-17T14:31:54.717Z,101975.30
2019-02-17T14:34:27.495Z,101969.68
2019-02-17T14:36:57.180Z,101967.00
2019-02-17T14:39:26.922Z,101962.91
2019-02-17T14:41:56.636Z,101956.42
2019-02-17T14:44:26.308Z,101960.64
2019-02-17T14:46:56.034Z,101952.16
2019-02-17T14:49:25.735Z,101953.45
2019-02-17T14:51:55.437Z,101951.69
2019-02-17T14:54:25.101Z,101950.59
2019-02-17T14:56:54.891Z,101950.41
2019-02-17T14:59:24.565Z,101942.45
2019-02-17T15:01:54.284Z,101939.33
2019-02-17T15:04:23.981Z,101942.43
2019-02-17T15:06:53.681Z,101935.16
2019-02-17T15:09:23.405Z,101947.91
2019-02-17T15:11:54.799Z,101944.58
2019-02-17T15:14:26.444Z,101943.81
2019-02-17T15:17:01.652Z,101939.13
2019-02-17T15:19:35.903Z,101943.81
2019-02-17T15:22:08.833Z,101941.87
2019-02-17T15:24:44.903Z,101939.53
2019-02-17T15:27:23.090Z,101944.37
2019-02-17T15:29:56.852Z,101936.19
2019-02-17T15:32:30.785Z,101944.25
2019-02-17T15:35:07.202Z,101944.52
2019-02-17T15:37:38.890Z,101939.23
2019-02-17T15:40:16.008Z,101940.12
2019-02-17T15:42:56.785Z,101922.47
2019-02-17T15:45:32.498Z,101927.22
2019-02-17T15:48:06.623Z,101925.56
2019-02-17T15:50:40.611Z,101921.34
2019-02-17T15:53:17.690Z,101912.00
2019-02-17T15:55:51.200Z,101913.06
2019-02-17T15:58:24.938Z,101908.11
2019-02-17T16:01:00.645Z,101913.45
2019-02-17T16:03:33.816Z,101909.20
2019-02-17T16:06:09.902Z,101914.47
2019-02-17T16:08:44.731Z,101909.95
2019-02-17T16:11:22.175Z,101912.97
2019-02-17T16:13:54.004Z,101906.38
2019-02-17T16:16:29.499Z,101905.05
2019-02-17T16:19:03.443Z,101903.97
2019-02-17T16:21:36.441Z,101901.98
2019-02-17T16:24:07.502Z,101900.34
2019-02-17T16:26:38.975Z,101904.41
2019-02-17T16:29:09.781Z,101898.66
2019-02-17T16:31:39.671Z,101903.86
2019-02-17T16:34:09.719Z,101899.72
2019-02-17T16:36:39.489Z,101895.66
2019-02-17T16:39:11.722Z,101902.22
2019-02-17T16:41:41.444Z,101894.00
2019-02-17T16:44:11.276Z,101898.18
2019-02-17T16:46:41.128Z,101903.67
2019-02-17T16:49:10.864Z,101901.38
2019-02-17T16:51:40.775Z,101901.86
2019-02-17T16:54:11.566Z,101906.25
2019-02-17T16:56:41.866Z,101910.20
2019-02-17T16:59:14.200Z,101904.70
2019-02-17T17:01:44.024Z,101909.65
2019-02-17T17:04:14.629Z,101911.02
2019-02-17T17:06:46.400Z,101911.95
2019-02-17T17:09:16.119Z,101914.55
2019-02-17T17:11:45.811Z,101904.25
2019-02-17T17:14:15.527Z,101906.34
2019-02-17T17:16:45.186Z,101907.33
2019-02-17T17:19:14.875Z,101907.23
2019-02-17T17:21:44.543Z,101902.54
2019-02-17T17:24:14.393Z,101911.07
2019-02-17T17:26:44.082Z,101905.05
2019-02-17T17:29:15.362Z,101906.34
2019-02-17T17:31:45.038Z,101914.77
2019-02-17T17:34:14.833Z,101904.53
2019-02-17T17:36:44.544Z,101902.03
2019-02-17T17:39:14.262Z,101912.77
2019-02-17T17:41:43.976Z,101912.21
2019-02-17T17:44:13.660Z,101908.73
2019-02-17T17:46:43.336Z,101910.55
2019-02-17T17:49:19.297Z,101908.13
2019-02-17T17:51:44.520Z,101909.63
2019-02-17T17:54:14.246Z,101906.34
2019-02-17T17:56:43.938Z,101908.59
2019-02-17T17:59:13.841Z,101911.19
2019-02-17T18:01:43.502Z,101906.78
2019-02-17T18:04:13.195Z,101907.35
2019-02-17T18:06:42.909Z,101902.67
2019-02-17T18:09:12.591Z,101910.67
2019-02-17T18:11:44.097Z,101905.03
2019-02-17T18:14:13.798Z,101903.79
2019-02-17T18:16:43.522Z,101905.20
2019-02-17T18:19:13.757Z,101905.69
2019-02-17T18:21:43.469Z,101898.83
2019-02-17T18:24:13.148Z,101903.73
2019-02-17T18:26:42.876Z,101900.11
2019-02-17T18:29:12.566Z,101907.91
2019-02-17T18:31:42.323Z,101903.60
2019-02-17T18:34:12.134Z,101899.62
2019-02-17T18:36:41.867Z,101896.66
2019-02-17T18:39:11.532Z,101893.25
2019-02-17T18:41:41.247Z,101897.35
2019-02-17T18:44:10.929Z,101889.17
2019-02-17T18:46:40.637Z,101894.37
2019-02-17T18:49:10.325Z,101889.32
2019-02-17T18:51:41.756Z,101886.56
2019-02-17T18:54:11.613Z,101886.75
2019-02-17T18:56:41.369Z,101885.72
2019-02-17T18:59:10.982Z,101884.37
2019-02-17T19:01:40.693Z,101882.97
2019-02-17T19:04:10.387Z,101883.70
2019-02-17T19:06:40.067Z,101879.56
2019-02-17T19:09:11.380Z,101885.43
2019-02-17T19:11:41.465Z,101882.02
2019-02-17T19:14:11.245Z,101887.19
2019-02-17T19:16:40.946Z,101885.86
2019-02-17T19:19:10.701Z,101879.64
2019-02-17T19:21:40.396Z,101884.40
2019-02-17T19:24:10.079Z,101874.80
2019-02-17T19:26:39.827Z,101876.77
2019-02-17T19:29:09.502Z,101886.02
2019-02-17T19:31:39.199Z,101878.00
2019-02-17T19:34:13.940Z,101873.98
2019-02-17T19:36:43.645Z,101872.78
2019-02-17T19:39:13.348Z,101873.67
2019-02-17T19:41:43.037Z,101882.23
2019-02-17T19:44:19.864Z,101870.29
2019-02-17T19:46:49.613Z,101874.20
2019-02-17T19:49:19.338Z,101875.19
2019-02-17T19:51:49.737Z,101875.23
2019-02-17T19:54:19.640Z,101871.30
2019-02-17T19:56:50.990Z,101873.57
2019-02-17T19:59:20.682Z,101877.89
2019-02-17T20:01:50.465Z,101866.02
2019-02-17T20:04:21.850Z,101864.91
2019-02-17T20:06:54.926Z,101861.75
2019-02-17T20:09:27.058Z,101852.11
2019-02-17T20:11:57.708Z,101853.03
2019-02-17T20:14:31.749Z,101845.37
2019-02-17T20:17:02.878Z,101837.22
2019-02-17T20:19:35.480Z,101836.33
2019-02-17T20:22:06.737Z,101832.14
2019-02-17T20:24:36.647Z,101833.34
2019-02-17T20:27:06.392Z,101834.03
2019-02-17T20:29:36.068Z,101832.50
2019-02-17T20:32:05.801Z,101835.38
2019-02-17T20:34:35.521Z,101823.17
2019-02-17T20:37:05.185Z,101827.00
2019-02-17T20:39:34.986Z,101828.62
2019-02-17T20:42:04.637Z,101818.70
2019-02-17T20:44:34.359Z,101825.91
2019-02-17T20:47:04.035Z,101822.93
2019-02-17T20:49:33.758Z,101824.24
2019-02-17T20:52:03.444Z,101834.78
2019-02-17T20:54:33.163Z,101835.20
2019-02-17T20:57:03.096Z,101837.91
2019-02-17T20:59:32.806Z,101851.47
2019-02-17T21:02:02.520Z,101850.45
2019-02-17T21:04:32.247Z,101850.48
2019-02-17T21:07:02.037Z,101846.83
2019-02-17T21:09:31.739Z,101845.12
2019-02-17T21:12:01.445Z,101848.20
2019-02-17T21:14:31.174Z,101850.08
2019-02-17T21:17:00.847Z,101863.77
2019-02-17T21:19:30.563Z,101864.14
2019-02-17T21:22:00.253Z,101875.47
2019-02-17T21:24:29.942Z,101866.47
2019-02-17T21:26:59.593Z,101865.38
2019-02-17T21:29:29.797Z,101857.09
2019-02-17T21:31:59.480Z,101858.61
2019-02-17T21:34:29.177Z,101859.58
2019-02-17T21:36:58.936Z,101861.95
2019-02-17T21:39:28.621Z,101860.78
2019-02-17T21:41:58.310Z,101855.61
2019-02-17T21:44:28.061Z,101849.08
2019-02-17T21:46:57.692Z,101849.93
2019-02-17T21:49:27.398Z,101844.63
2019-02-17T21:51:57.096Z,101844.31
2019-02-17T21:54:26.898Z,101846.42
2019-02-17T21:56:56.566Z,101839.04
2019-02-17T21:59:26.332Z,101844.63
2019-02-17T22:01:56.093Z,101843.28
2019-02-17T22:04:25.756Z,101837.42
2019-02-17T22:06:55.462Z,101833.03
2019-02-17T22:09:25.152Z,101826.78
2019-02-17T22:11:54.928Z,101831.62
2019-02-17T22:14:24.629Z,101834.23
2019-02-17T22:16:54.340Z,101836.75
2019-02-17T22:19:24.018Z,101831.96
2019-02-17T22:21:53.769Z,101833.50
2019-02-17T22:24:23.453Z,101831.02
2019-02-17T22:26:53.180Z,101838.26
2019-02-17T22:29:22.934Z,101839.79
2019-02-17T22:31:52.622Z,101838.41
2019-02-17T22:34:22.324Z,101833.41
2019-02-17T22:36:52.012Z,101841.85
2019-02-17T22:39:21.753Z,101838.16
2019-02-17T22:41:51.483Z,101829.23
2019-02-17T22:44:21.176Z,101831.28
2019-02-17T22:46:50.902Z,101826.86
2019-02-17T22:49:20.572Z,101829.89
2019-02-17T22:51:50.246Z,101834.64
2019-02-17T22:54:19.951Z,101828.73
2019-02-17T22:56:49.706Z,101827.47
2019-02-17T22:59:19.407Z,101827.84
2019-02-17T23:01:49.111Z,101816.43
2019-02-17T23:04:18.808Z,101818.45
2019-02-17T23:06:54.140Z,101811.11
2019-02-17T23:09:19.974Z,101808.20
2019-02-17T23:11:49.768Z,101809.66
2019-02-17T23:14:19.508Z,101811.08
2019-02-17T23:16:49.236Z,101804.39
2019-02-17T23:19:18.932Z,101805.50
2019-02-17T23:21:48.649Z,101807.18
2019-02-17T23:24:18.975Z,101809.87
2019-02-17T23:26:48.685Z,101821.94
2019-02-17T23:29:18.341Z,101810.89
2019-02-17T23:31:48.061Z,101809.06
2019-02-17T23:34:17.761Z,101799.48
2019-02-17T23:36:47.483Z,101801.05
2019-02-17T23:39:17.169Z,101803.19
2019-02-17T23:41:46.885Z,101805.39
2019-02-17T23:44:16.610Z,101807.19
2019-02-17T23:46:46.359Z,101802.06
2019-02-17T23:49:16.062Z,101802.70
2019-02-17T23:51:45.740Z,101797.57
2019-02-17T23:54:15.453Z,101792.75
2019-02-17T23:56:45.153Z,101791.85
2019-02-17T23:59:14.851Z,101799.78
